sensor_id;sensor_type;location;lat;lon;timestamp;temperature;humidity
25732;DHT22;13585;50.864;4.406;2023-05-07T00:01:51;23.20;58.30
25732;DHT22;13585;50.864;4.406;2023-05-07T00:04:17;23.20;58.30
25732;DHT22;13585;50.864;4.406;2023-05-07T00:06:42;23.20;58.30
25732;DHT22;13585;50.864;4.406;2023-05-07T00:09:08;23.20;58.30
25732;DHT22;13585;50.864;4.406;2023-05-07T00:11:34;23.20;58.30
25732;DHT22;13585;50.864;4.406;2023-05-07T00:14:00;23.20;58.30
25732;DHT22;13585;50.864;4.406;2023-05-07T00:16:25;23.20;58.20
25732;DHT22;13585;50.864;4.406;2023-05-07T00:18:52;23.20;58.30
25732;DHT22;13585;50.864;4.406;2023-05-07T00:21:18;23.20;58.20
25732;DHT22;13585;50.864;4.406;2023-05-07T00:23:44;23.20;58.20
25732;DHT22;13585;50.864;4.406;2023-05-07T00:26:10;23.20;58.20
25732;DHT22;13585;50.864;4.406;2023-05-07T00:28:35;23.20;58.20
25732;DHT22;13585;50.864;4.406;2023-05-07T00:31:01;23.20;58.20
25732;DHT22;13585;50.864;4.406;2023-05-07T00:33:26;23.20;58.20
25732;DHT22;13585;50.864;4.406;2023-05-07T00:35:52;23.20;58.20
25732;DHT22;13585;50.864;4.406;2023-05-07T00:38:19;23.20;58.20
25732;DHT22;13585;50.864;4.406;2023-05-07T00:40:45;23.20;58.20
25732;DHT22;13585;50.864;4.406;2023-05-07T00:43:11;23.20;58.20
25732;DHT22;13585;50.864;4.406;2023-05-07T00:45:38;23.20;58.10
25732;DHT22;13585;50.864;4.406;2023-05-07T00:48:04;23.20;58.10
25732;DHT22;13585;50.864;4.406;2023-05-07T00:50:31;23.20;58.10
25732;DHT22;13585;50.864;4.406;2023-05-07T00:52:58;23.20;58.10
25732;DHT22;13585;50.864;4.406;2023-05-07T00:55:24;23.20;58.10
25732;DHT22;13585;50.864;4.406;2023-05-07T00:57:50;23.20;58.10
25732;DHT22;13585;50.864;4.406;2023-05-07T01:00:17;23.20;58.10
25732;DHT22;13585;50.864;4.406;2023-05-07T01:02:43;23.20;58.10
25732;DHT22;13585;50.864;4.406;2023-05-07T01:05:13;23.20;58.10
25732;DHT22;13585;50.864;4.406;2023-05-07T01:07:40;23.20;58.10
25732;DHT22;13585;50.864;4.406;2023-05-07T01:10:08;23.20;58.70
25732;DHT22;13585;50.864;4.406;2023-05-07T01:12:37;23.20;58.10
25732;DHT22;13585;50.864;4.406;2023-05-07T01:15:04;23.20;58.00
25732;DHT22;13585;50.864;4.406;2023-05-07T01:17:36;23.20;58.00
25732;DHT22;13585;50.864;4.406;2023-05-07T01:20:04;23.20;58.00
25732;DHT22;13585;50.864;4.406;2023-05-07T01:22:37;23.20;58.00
25732;DHT22;13585;50.864;4.406;2023-05-07T01:25:04;23.20;58.00
25732;DHT22;13585;50.864;4.406;2023-05-07T01:27:30;23.20;58.00
25732;DHT22;13585;50.864;4.406;2023-05-07T01:29:56;23.20;58.00
25732;DHT22;13585;50.864;4.406;2023-05-07T01:32:29;23.20;58.00
25732;DHT22;13585;50.864;4.406;2023-05-07T01:34:57;23.20;58.00
25732;DHT22;13585;50.864;4.406;2023-05-07T01:37:25;23.20;58.00
25732;DHT22;13585;50.864;4.406;2023-05-07T01:39:52;23.20;58.00
25732;DHT22;13585;50.864;4.406;2023-05-07T01:42:17;23.20;58.00
25732;DHT22;13585;50.864;4.406;2023-05-07T01:44:43;23.20;58.00
25732;DHT22;13585;50.864;4.406;2023-05-07T01:47:09;23.20;58.00
25732;DHT22;13585;50.864;4.406;2023-05-07T01:49:35;23.20;58.00
25732;DHT22;13585;50.864;4.406;2023-05-07T01:52:01;23.20;58.00
25732;DHT22;13585;50.864;4.406;2023-05-07T01:54:27;23.20;58.00
25732;DHT22;13585;50.864;4.406;2023-05-07T01:56:53;23.20;58.00
25732;DHT22;13585;50.864;4.406;2023-05-07T01:59:19;23.20;58.00
25732;DHT22;13585;50.864;4.406;2023-05-07T02:01:44;23.20;58.00
25732;DHT22;13585;50.864;4.406;2023-05-07T02:04:10;23.20;58.00
25732;DHT22;13585;50.864;4.406;2023-05-07T02:06:36;23.20;57.90
25732;DHT22;13585;50.864;4.406;2023-05-07T02:09:01;23.10;57.90
25732;DHT22;13585;50.864;4.406;2023-05-07T02:11:27;23.20;57.90
25732;DHT22;13585;50.864;4.406;2023-05-07T02:13:52;23.10;57.90
25732;DHT22;13585;50.864;4.406;2023-05-07T02:16:18;23.20;57.90
25732;DHT22;13585;50.864;4.406;2023-05-07T02:18:45;23.10;57.90
25732;DHT22;13585;50.864;4.406;2023-05-07T02:21:10;23.20;57.90
25732;DHT22;13585;50.864;4.406;2023-05-07T02:23:36;23.20;57.90
25732;DHT22;13585;50.864;4.406;2023-05-07T02:26:03;23.20;57.90
25732;DHT22;13585;50.864;4.406;2023-05-07T02:28:28;23.10;57.80
25732;DHT22;13585;50.864;4.406;2023-05-07T02:30:54;23.10;57.80
25732;DHT22;13585;50.864;4.406;2023-05-07T02:33:20;23.20;57.90
25732;DHT22;13585;50.864;4.406;2023-05-07T02:35:45;23.20;58.50
25732;DHT22;13585;50.864;4.406;2023-05-07T02:38:11;23.20;57.90
25732;DHT22;13585;50.864;4.406;2023-05-07T02:40:37;23.10;57.80
25732;DHT22;13585;50.864;4.406;2023-05-07T02:43:05;23.10;57.80
25732;DHT22;13585;50.864;4.406;2023-05-07T02:45:32;23.10;57.80
25732;DHT22;13585;50.864;4.406;2023-05-07T02:47:58;23.20;57.90
25732;DHT22;13585;50.864;4.406;2023-05-07T02:50:23;23.10;57.80
25732;DHT22;13585;50.864;4.406;2023-05-07T02:52:49;23.10;57.80
25732;DHT22;13585;50.864;4.406;2023-05-07T02:55:15;23.20;57.90
25732;DHT22;13585;50.864;4.406;2023-05-07T02:57:41;23.10;57.80
25732;DHT22;13585;50.864;4.406;2023-05-07T03:00:14;23.10;57.80
25732;DHT22;13585;50.864;4.406;2023-05-07T03:02:40;23.10;57.80
25732;DHT22;13585;50.864;4.406;2023-05-07T03:05:06;23.10;57.70
25732;DHT22;13585;50.864;4.406;2023-05-07T03:07:32;23.10;57.80
25732;DHT22;13585;50.864;4.406;2023-05-07T03:09:57;23.10;57.70
25732;DHT22;13585;50.864;4.406;2023-05-07T03:12:23;23.10;57.70
25732;DHT22;13585;50.864;4.406;2023-05-07T03:14:49;23.10;57.70
25732;DHT22;13585;50.864;4.406;2023-05-07T03:17:15;23.10;57.70
25732;DHT22;13585;50.864;4.406;2023-05-07T03:19:41;23.10;57.70
25732;DHT22;13585;50.864;4.406;2023-05-07T03:22:07;23.10;57.70
25732;DHT22;13585;50.864;4.406;2023-05-07T03:24:32;23.10;57.70
25732;DHT22;13585;50.864;4.406;2023-05-07T03:26:58;23.10;57.70
25732;DHT22;13585;50.864;4.406;2023-05-07T03:29:24;23.10;57.70
25732;DHT22;13585;50.864;4.406;2023-05-07T03:31:49;23.00;57.70
25732;DHT22;13585;50.864;4.406;2023-05-07T03:34:15;23.10;57.70
25732;DHT22;13585;50.864;4.406;2023-05-07T03:36:42;23.10;57.70
25732;DHT22;13585;50.864;4.406;2023-05-07T03:39:08;23.10;57.70
25732;DHT22;13585;50.864;4.406;2023-05-07T03:41:33;23.10;57.70
25732;DHT22;13585;50.864;4.406;2023-05-07T03:43:59;23.10;57.70
25732;DHT22;13585;50.864;4.406;2023-05-07T03:46:25;23.10;57.70
25732;DHT22;13585;50.864;4.406;2023-05-07T03:48:51;23.10;57.70
25732;DHT22;13585;50.864;4.406;2023-05-07T03:51:17;23.10;57.70
25732;DHT22;13585;50.864;4.406;2023-05-07T03:53:43;23.10;57.60
25732;DHT22;13585;50.864;4.406;2023-05-07T03:56:09;23.10;57.60
25732;DHT22;13585;50.864;4.406;2023-05-07T03:58:34;23.10;57.60
25732;DHT22;13585;50.864;4.406;2023-05-07T04:01:00;23.10;57.70
25732;DHT22;13585;50.864;4.406;2023-05-07T04:03:26;23.10;57.60
25732;DHT22;13585;50.864;4.406;2023-05-07T04:05:52;23.10;57.60
25732;DHT22;13585;50.864;4.406;2023-05-07T04:08:17;23.10;57.60
25732;DHT22;13585;50.864;4.406;2023-05-07T04:10:43;23.10;57.60
25732;DHT22;13585;50.864;4.406;2023-05-07T04:13:08;23.10;57.60
25732;DHT22;13585;50.864;4.406;2023-05-07T04:15:35;23.10;57.60
25732;DHT22;13585;50.864;4.406;2023-05-07T04:18:01;23.10;57.60
25732;DHT22;13585;50.864;4.406;2023-05-07T04:20:26;23.10;57.60
25732;DHT22;13585;50.864;4.406;2023-05-07T04:22:52;23.10;57.60
25732;DHT22;13585;50.864;4.406;2023-05-07T04:27:53;23.10;57.60
25732;DHT22;13585;50.864;4.406;2023-05-07T04:30:22;23.10;57.60
25732;DHT22;13585;50.864;4.406;2023-05-07T04:32:47;23.10;57.60
25732;DHT22;13585;50.864;4.406;2023-05-07T04:35:13;23.10;57.60
25732;DHT22;13585;50.864;4.406;2023-05-07T04:37:39;23.10;57.60
25732;DHT22;13585;50.864;4.406;2023-05-07T04:40:06;23.10;57.60
25732;DHT22;13585;50.864;4.406;2023-05-07T04:42:32;23.00;57.50
25732;DHT22;13585;50.864;4.406;2023-05-07T04:44:57;23.10;57.60
25732;DHT22;13585;50.864;4.406;2023-05-07T04:47:23;23.10;57.60
25732;DHT22;13585;50.864;4.406;2023-05-07T04:49:48;23.10;57.60
25732;DHT22;13585;50.864;4.406;2023-05-07T04:52:14;23.10;57.50
25732;DHT22;13585;50.864;4.406;2023-05-07T04:54:40;23.10;57.60
25732;DHT22;13585;50.864;4.406;2023-05-07T04:57:06;23.10;57.60
25732;DHT22;13585;50.864;4.406;2023-05-07T04:59:32;23.00;57.50
25732;DHT22;13585;50.864;4.406;2023-05-07T05:01:58;23.10;57.50
25732;DHT22;13585;50.864;4.406;2023-05-07T05:04:23;23.10;57.60
25732;DHT22;13585;50.864;4.406;2023-05-07T05:06:49;23.10;57.50
25732;DHT22;13585;50.864;4.406;2023-05-07T05:09:15;23.10;57.60
25732;DHT22;13585;50.864;4.406;2023-05-07T05:11:41;23.10;57.50
25732;DHT22;13585;50.864;4.406;2023-05-07T05:14:07;23.00;57.50
25732;DHT22;13585;50.864;4.406;2023-05-07T05:16:32;23.10;57.60
25732;DHT22;13585;50.864;4.406;2023-05-07T05:18:59;23.00;57.50
25732;DHT22;13585;50.864;4.406;2023-05-07T05:21:24;23.10;57.50
25732;DHT22;13585;50.864;4.406;2023-05-07T05:23:50;23.10;57.60
25732;DHT22;13585;50.864;4.406;2023-05-07T05:26:15;23.00;57.50
25732;DHT22;13585;50.864;4.406;2023-05-07T05:28:41;23.10;57.60
25732;DHT22;13585;50.864;4.406;2023-05-07T05:31:07;23.00;57.60
25732;DHT22;13585;50.864;4.406;2023-05-07T05:33:32;23.10;57.60
25732;DHT22;13585;50.864;4.406;2023-05-07T05:35:58;23.00;57.60
25732;DHT22;13585;50.864;4.406;2023-05-07T05:38:23;23.10;57.60
25732;DHT22;13585;50.864;4.406;2023-05-07T05:40:49;23.10;57.60
25732;DHT22;13585;50.864;4.406;2023-05-07T05:43:15;23.10;57.60
25732;DHT22;13585;50.864;4.406;2023-05-07T05:45:40;23.10;57.60
25732;DHT22;13585;50.864;4.406;2023-05-07T05:48:06;23.00;57.60
25732;DHT22;13585;50.864;4.406;2023-05-07T05:50:34;23.10;57.60
25732;DHT22;13585;50.864;4.406;2023-05-07T05:53:01;23.10;57.60
25732;DHT22;13585;50.864;4.406;2023-05-07T05:55:27;23.10;57.60
25732;DHT22;13585;50.864;4.406;2023-05-07T05:57:52;23.10;57.60
25732;DHT22;13585;50.864;4.406;2023-05-07T06:00:18;23.10;57.60
25732;DHT22;13585;50.864;4.406;2023-05-07T06:02:44;23.10;57.60
25732;DHT22;13585;50.864;4.406;2023-05-07T06:05:09;23.10;57.60
25732;DHT22;13585;50.864;4.406;2023-05-07T06:07:35;23.10;57.60
25732;DHT22;13585;50.864;4.406;2023-05-07T06:10:01;23.10;57.60
25732;DHT22;13585;50.864;4.406;2023-05-07T06:12:27;23.10;57.60
25732;DHT22;13585;50.864;4.406;2023-05-07T06:14:52;23.10;57.60
25732;DHT22;13585;50.864;4.406;2023-05-07T06:17:18;23.10;57.70
25732;DHT22;13585;50.864;4.406;2023-05-07T06:19:43;23.10;57.60
25732;DHT22;13585;50.864;4.406;2023-05-07T06:22:09;23.10;57.70
25732;DHT22;13585;50.864;4.406;2023-05-07T06:24:35;23.10;57.60
25732;DHT22;13585;50.864;4.406;2023-05-07T06:27:00;23.10;57.70
25732;DHT22;13585;50.864;4.406;2023-05-07T06:29:26;23.10;57.60
25732;DHT22;13585;50.864;4.406;2023-05-07T06:31:54;23.10;57.70
25732;DHT22;13585;50.864;4.406;2023-05-07T06:34:20;23.10;57.70
25732;DHT22;13585;50.864;4.406;2023-05-07T06:36:45;23.10;57.70
25732;DHT22;13585;50.864;4.406;2023-05-07T06:39:11;23.10;57.70
25732;DHT22;13585;50.864;4.406;2023-05-07T06:41:37;23.10;57.60
25732;DHT22;13585;50.864;4.406;2023-05-07T06:44:03;23.10;57.60
25732;DHT22;13585;50.864;4.406;2023-05-07T06:46:29;23.10;57.60
25732;DHT22;13585;50.864;4.406;2023-05-07T06:48:55;23.10;57.60
25732;DHT22;13585;50.864;4.406;2023-05-07T06:51:22;23.10;57.70
25732;DHT22;13585;50.864;4.406;2023-05-07T06:53:47;23.10;57.60
25732;DHT22;13585;50.864;4.406;2023-05-07T06:56:13;23.10;57.70
25732;DHT22;13585;50.864;4.406;2023-05-07T06:58:38;23.10;57.70
25732;DHT22;13585;50.864;4.406;2023-05-07T07:01:04;23.10;57.60
25732;DHT22;13585;50.864;4.406;2023-05-07T07:03:30;23.10;57.60
25732;DHT22;13585;50.864;4.406;2023-05-07T07:05:55;23.10;57.60
25732;DHT22;13585;50.864;4.406;2023-05-07T07:08:22;23.10;57.70
25732;DHT22;13585;50.864;4.406;2023-05-07T07:10:48;23.10;57.60
25732;DHT22;13585;50.864;4.406;2023-05-07T07:13:13;23.10;57.70
25732;DHT22;13585;50.864;4.406;2023-05-07T07:15:40;23.10;57.60
25732;DHT22;13585;50.864;4.406;2023-05-07T07:18:06;23.10;57.70
25732;DHT22;13585;50.864;4.406;2023-05-07T07:20:32;23.10;57.60
25732;DHT22;13585;50.864;4.406;2023-05-07T07:22:57;23.10;57.60
25732;DHT22;13585;50.864;4.406;2023-05-07T07:25:23;23.10;57.60
25732;DHT22;13585;50.864;4.406;2023-05-07T07:27:49;23.10;57.60
25732;DHT22;13585;50.864;4.406;2023-05-07T07:30:15;23.10;57.70
25732;DHT22;13585;50.864;4.406;2023-05-07T07:32:41;23.10;57.60
25732;DHT22;13585;50.864;4.406;2023-05-07T07:35:07;23.10;57.70
25732;DHT22;13585;50.864;4.406;2023-05-07T07:37:32;23.10;57.60
25732;DHT22;13585;50.864;4.406;2023-05-07T07:39:58;23.10;57.70
25732;DHT22;13585;50.864;4.406;2023-05-07T07:42:23;23.10;57.60
25732;DHT22;13585;50.864;4.406;2023-05-07T07:44:49;23.10;57.70
25732;DHT22;13585;50.864;4.406;2023-05-07T07:47:15;23.10;57.60
25732;DHT22;13585;50.864;4.406;2023-05-07T07:49:41;23.10;57.70
25732;DHT22;13585;50.864;4.406;2023-05-07T07:52:06;23.10;57.60
25732;DHT22;13585;50.864;4.406;2023-05-07T07:54:32;23.10;57.70
25732;DHT22;13585;50.864;4.406;2023-05-07T07:56:58;23.10;57.90
25732;DHT22;13585;50.864;4.406;2023-05-07T07:59:23;23.10;57.70
25732;DHT22;13585;50.864;4.406;2023-05-07T08:01:49;23.10;57.70
25732;DHT22;13585;50.864;4.406;2023-05-07T08:04:15;23.20;57.70
25732;DHT22;13585;50.864;4.406;2023-05-07T08:06:41;23.10;57.70
25732;DHT22;13585;50.864;4.406;2023-05-07T08:09:19;23.10;57.70
25732;DHT22;13585;50.864;4.406;2023-05-07T08:11:45;23.10;57.70
25732;DHT22;13585;50.864;4.406;2023-05-07T08:14:14;23.10;57.70
25732;DHT22;13585;50.864;4.406;2023-05-07T08:16:41;23.10;57.70
25732;DHT22;13585;50.864;4.406;2023-05-07T08:19:07;23.10;57.70
25732;DHT22;13585;50.864;4.406;2023-05-07T08:21:32;23.10;57.70
25732;DHT22;13585;50.864;4.406;2023-05-07T08:24:01;23.10;57.70
25732;DHT22;13585;50.864;4.406;2023-05-07T08:26:27;23.10;57.70
25732;DHT22;13585;50.864;4.406;2023-05-07T08:28:55;23.10;57.70
25732;DHT22;13585;50.864;4.406;2023-05-07T08:31:21;23.10;57.70
25732;DHT22;13585;50.864;4.406;2023-05-07T08:33:46;23.10;57.70
25732;DHT22;13585;50.864;4.406;2023-05-07T08:36:12;23.10;57.70
25732;DHT22;13585;50.864;4.406;2023-05-07T08:38:38;23.10;57.70
25732;DHT22;13585;50.864;4.406;2023-05-07T08:41:06;23.10;57.80
25732;DHT22;13585;50.864;4.406;2023-05-07T08:43:33;23.10;57.70
25732;DHT22;13585;50.864;4.406;2023-05-07T08:46:01;23.10;57.70
25732;DHT22;13585;50.864;4.406;2023-05-07T08:48:29;23.10;57.80
25732;DHT22;13585;50.864;4.406;2023-05-07T08:50:55;23.10;57.80
25732;DHT22;13585;50.864;4.406;2023-05-07T08:53:21;23.10;57.70
25732;DHT22;13585;50.864;4.406;2023-05-07T08:55:47;23.10;57.80
25732;DHT22;13585;50.864;4.406;2023-05-07T08:58:13;23.10;57.80
25732;DHT22;13585;50.864;4.406;2023-05-07T09:00:40;23.10;57.80
25732;DHT22;13585;50.864;4.406;2023-05-07T09:03:07;23.10;57.70
25732;DHT22;13585;50.864;4.406;2023-05-07T09:05:32;23.10;57.80
25732;DHT22;13585;50.864;4.406;2023-05-07T09:08:06;23.10;57.80
25732;DHT22;13585;50.864;4.406;2023-05-07T09:10:34;23.10;57.80
25732;DHT22;13585;50.864;4.406;2023-05-07T09:13:00;23.10;57.80
25732;DHT22;13585;50.864;4.406;2023-05-07T09:15:26;23.10;57.80
25732;DHT22;13585;50.864;4.406;2023-05-07T09:17:53;23.10;57.80
25732;DHT22;13585;50.864;4.406;2023-05-07T09:20:20;23.10;57.80
25732;DHT22;13585;50.864;4.406;2023-05-07T09:22:45;23.10;57.80
25732;DHT22;13585;50.864;4.406;2023-05-07T09:25:11;23.10;57.80
25732;DHT22;13585;50.864;4.406;2023-05-07T09:27:37;23.10;57.80
25732;DHT22;13585;50.864;4.406;2023-05-07T09:30:04;23.10;57.80
25732;DHT22;13585;50.864;4.406;2023-05-07T09:32:36;23.10;57.80
25732;DHT22;13585;50.864;4.406;2023-05-07T09:35:05;23.10;57.80
25732;DHT22;13585;50.864;4.406;2023-05-07T09:37:31;23.10;57.80
25732;DHT22;13585;50.864;4.406;2023-05-07T09:39:58;23.10;57.80
25732;DHT22;13585;50.864;4.406;2023-05-07T09:42:24;23.10;57.80
25732;DHT22;13585;50.864;4.406;2023-05-07T09:44:52;23.10;57.80
25732;DHT22;13585;50.864;4.406;2023-05-07T09:47:19;23.10;57.80
25732;DHT22;13585;50.864;4.406;2023-05-07T09:49:56;23.10;57.80
25732;DHT22;13585;50.864;4.406;2023-05-07T09:52:25;23.10;57.90
25732;DHT22;13585;50.864;4.406;2023-05-07T09:58:25;23.10;57.90
25732;DHT22;13585;50.864;4.406;2023-05-07T10:00:52;23.10;57.80
25732;DHT22;13585;50.864;4.406;2023-05-07T10:03:19;23.10;57.80
25732;DHT22;13585;50.864;4.406;2023-05-07T10:05:46;23.10;57.80
25732;DHT22;13585;50.864;4.406;2023-05-07T10:08:13;23.10;57.80
25732;DHT22;13585;50.864;4.406;2023-05-07T10:10:42;23.10;57.80
25732;DHT22;13585;50.864;4.406;2023-05-07T10:13:09;23.10;57.80
25732;DHT22;13585;50.864;4.406;2023-05-07T10:15:36;23.10;57.80
25732;DHT22;13585;50.864;4.406;2023-05-07T10:18:21;23.10;57.80
25732;DHT22;13585;50.864;4.406;2023-05-07T10:20:50;23.10;57.80
25732;DHT22;13585;50.864;4.406;2023-05-07T10:23:23;23.10;57.90
25732;DHT22;13585;50.864;4.406;2023-05-07T10:25:49;23.10;57.80
25732;DHT22;13585;50.864;4.406;2023-05-07T10:28:15;23.10;57.80
25732;DHT22;13585;50.864;4.406;2023-05-07T10:33:36;23.10;57.80
25732;DHT22;13585;50.864;4.406;2023-05-07T10:36:03;23.10;57.80
25732;DHT22;13585;50.864;4.406;2023-05-07T10:38:31;23.10;57.80
25732;DHT22;13585;50.864;4.406;2023-05-07T10:40:56;23.10;57.80
25732;DHT22;13585;50.864;4.406;2023-05-07T10:43:22;23.10;57.80
25732;DHT22;13585;50.864;4.406;2023-05-07T10:46:09;23.10;58.40
25732;DHT22;13585;50.864;4.406;2023-05-07T10:51:32;23.10;57.80
25732;DHT22;13585;50.864;4.406;2023-05-07T10:56:42;23.10;57.80
25732;DHT22;13585;50.864;4.406;2023-05-07T10:59:29;23.10;57.80
25732;DHT22;13585;50.864;4.406;2023-05-07T11:01:59;23.10;57.80
25732;DHT22;13585;50.864;4.406;2023-05-07T11:04:28;23.10;57.80
25732;DHT22;13585;50.864;4.406;2023-05-07T11:15:10;23.10;57.90
25732;DHT22;13585;50.864;4.406;2023-05-07T11:17:59;23.10;57.80
25732;DHT22;13585;50.864;4.406;2023-05-07T11:26:07;23.10;57.80
25732;DHT22;13585;50.864;4.406;2023-05-07T11:28:37;23.10;57.80
25732;DHT22;13585;50.864;4.406;2023-05-07T11:31:04;23.10;57.90
25732;DHT22;13585;50.864;4.406;2023-05-07T11:33:32;23.10;57.90
25732;DHT22;13585;50.864;4.406;2023-05-07T11:35:59;23.10;57.90
25732;DHT22;13585;50.864;4.406;2023-05-07T11:38:25;23.10;57.90
25732;DHT22;13585;50.864;4.406;2023-05-07T11:40:58;23.10;57.90
25732;DHT22;13585;50.864;4.406;2023-05-07T11:43:26;23.10;57.90
25732;DHT22;13585;50.864;4.406;2023-05-07T11:45:52;23.10;57.90
25732;DHT22;13585;50.864;4.406;2023-05-07T11:48:18;23.10;57.90
25732;DHT22;13585;50.864;4.406;2023-05-07T11:50:54;23.10;57.90
25732;DHT22;13585;50.864;4.406;2023-05-07T11:53:25;23.10;58.00
25732;DHT22;13585;50.864;4.406;2023-05-07T11:55:57;23.10;57.90
25732;DHT22;13585;50.864;4.406;2023-05-07T11:58:24;23.10;58.00
25732;DHT22;13585;50.864;4.406;2023-05-07T12:00:53;23.10;57.90
25732;DHT22;13585;50.864;4.406;2023-05-07T12:03:20;23.10;57.90
25732;DHT22;13585;50.864;4.406;2023-05-07T12:05:46;23.10;58.00
25732;DHT22;13585;50.864;4.406;2023-05-07T12:08:16;23.10;58.00
25732;DHT22;13585;50.864;4.406;2023-05-07T12:10:43;23.10;58.00
25732;DHT22;13585;50.864;4.406;2023-05-07T12:13:19;23.10;58.00
25732;DHT22;13585;50.864;4.406;2023-05-07T12:15:45;23.10;58.10
25732;DHT22;13585;50.864;4.406;2023-05-07T12:18:11;23.10;58.00
25732;DHT22;13585;50.864;4.406;2023-05-07T12:20:38;23.10;58.00
25732;DHT22;13585;50.864;4.406;2023-05-07T12:23:04;23.10;58.10
25732;DHT22;13585;50.864;4.406;2023-05-07T12:25:40;23.10;58.10
25732;DHT22;13585;50.864;4.406;2023-05-07T12:28:13;23.10;58.10
25732;DHT22;13585;50.864;4.406;2023-05-07T12:30:40;23.20;58.00
25732;DHT22;13585;50.864;4.406;2023-05-07T12:33:06;23.20;58.00
25732;DHT22;13585;50.864;4.406;2023-05-07T12:35:37;23.10;58.10
25732;DHT22;13585;50.864;4.406;2023-05-07T12:38:11;23.10;58.20
25732;DHT22;13585;50.864;4.406;2023-05-07T12:40:41;23.10;58.20
25732;DHT22;13585;50.864;4.406;2023-05-07T12:43:07;23.10;58.20
25732;DHT22;13585;50.864;4.406;2023-05-07T12:45:39;23.10;58.20
25732;DHT22;13585;50.864;4.406;2023-05-07T12:48:06;23.10;58.30
25732;DHT22;13585;50.864;4.406;2023-05-07T12:50:32;23.10;58.20
25732;DHT22;13585;50.864;4.406;2023-05-07T12:53:01;23.10;58.20
25732;DHT22;13585;50.864;4.406;2023-05-07T12:55:31;23.10;58.30
25732;DHT22;13585;50.864;4.406;2023-05-07T12:57:57;23.10;58.30
25732;DHT22;13585;50.864;4.406;2023-05-07T13:00:36;23.10;58.30
25732;DHT22;13585;50.864;4.406;2023-05-07T13:03:02;23.10;58.40
25732;DHT22;13585;50.864;4.406;2023-05-07T13:05:27;23.20;58.40
25732;DHT22;13585;50.864;4.406;2023-05-07T13:07:54;23.10;58.40
25732;DHT22;13585;50.864;4.406;2023-05-07T13:10:21;23.10;58.40
25732;DHT22;13585;50.864;4.406;2023-05-07T13:12:46;23.20;58.50
25732;DHT22;13585;50.864;4.406;2023-05-07T13:15:33;23.20;58.50
25732;DHT22;13585;50.864;4.406;2023-05-07T13:18:26;23.20;58.50
25732;DHT22;13585;50.864;4.406;2023-05-07T13:20:55;23.20;58.60
25732;DHT22;13585;50.864;4.406;2023-05-07T13:23:24;23.20;58.50
25732;DHT22;13585;50.864;4.406;2023-05-07T13:25:50;23.20;58.50
25732;DHT22;13585;50.864;4.406;2023-05-07T13:28:16;23.20;58.60
25732;DHT22;13585;50.864;4.406;2023-05-07T13:30:45;23.20;58.60
25732;DHT22;13585;50.864;4.406;2023-05-07T13:33:11;23.10;58.60
25732;DHT22;13585;50.864;4.406;2023-05-07T13:35:36;23.10;58.60
25732;DHT22;13585;50.864;4.406;2023-05-07T13:38:03;23.20;58.70
25732;DHT22;13585;50.864;4.406;2023-05-07T13:40:32;23.20;59.20
25732;DHT22;13585;50.864;4.406;2023-05-07T13:42:58;23.10;58.70
25732;DHT22;13585;50.864;4.406;2023-05-07T13:45:25;23.20;58.70
25732;DHT22;13585;50.864;4.406;2023-05-07T13:47:51;23.20;58.70
25732;DHT22;13585;50.864;4.406;2023-05-07T13:50:17;23.20;58.70
25732;DHT22;13585;50.864;4.406;2023-05-07T13:52:45;23.20;58.70
25732;DHT22;13585;50.864;4.406;2023-05-07T13:55:17;23.20;58.70
25732;DHT22;13585;50.864;4.406;2023-05-07T13:57:43;23.20;58.70
25732;DHT22;13585;50.864;4.406;2023-05-07T14:00:09;23.20;58.80
25732;DHT22;13585;50.864;4.406;2023-05-07T14:02:35;23.20;58.80
25732;DHT22;13585;50.864;4.406;2023-05-07T14:05:00;23.20;58.80
25732;DHT22;13585;50.864;4.406;2023-05-07T14:07:26;23.20;59.40
25732;DHT22;13585;50.864;4.406;2023-05-07T14:09:52;23.20;58.90
25732;DHT22;13585;50.864;4.406;2023-05-07T14:12:17;23.20;58.80
25732;DHT22;13585;50.864;4.406;2023-05-07T14:14:43;23.20;58.90
25732;DHT22;13585;50.864;4.406;2023-05-07T14:17:09;23.20;58.90
25732;DHT22;13585;50.864;4.406;2023-05-07T14:19:34;23.20;58.90
25732;DHT22;13585;50.864;4.406;2023-05-07T14:22:00;23.20;58.90
25732;DHT22;13585;50.864;4.406;2023-05-07T14:24:26;23.20;58.90
25732;DHT22;13585;50.864;4.406;2023-05-07T14:26:51;23.20;58.90
25732;DHT22;13585;50.864;4.406;2023-05-07T14:29:17;23.20;58.90
25732;DHT22;13585;50.864;4.406;2023-05-07T14:31:44;23.20;59.00
25732;DHT22;13585;50.864;4.406;2023-05-07T14:34:11;23.20;59.00
25732;DHT22;13585;50.864;4.406;2023-05-07T14:36:36;23.20;59.00
25732;DHT22;13585;50.864;4.406;2023-05-07T14:39:11;23.20;59.00
25732;DHT22;13585;50.864;4.406;2023-05-07T14:41:58;23.20;59.00
25732;DHT22;13585;50.864;4.406;2023-05-07T14:44:24;23.20;59.00
25732;DHT22;13585;50.864;4.406;2023-05-07T14:46:50;23.20;59.00
25732;DHT22;13585;50.864;4.406;2023-05-07T14:49:16;23.20;59.00
25732;DHT22;13585;50.864;4.406;2023-05-07T14:51:44;23.20;59.10
25732;DHT22;13585;50.864;4.406;2023-05-07T14:54:11;23.20;59.10
25732;DHT22;13585;50.864;4.406;2023-05-07T14:56:36;23.20;59.00
25732;DHT22;13585;50.864;4.406;2023-05-07T14:59:03;23.20;59.10
25732;DHT22;13585;50.864;4.406;2023-05-07T15:01:34;23.20;59.10
25732;DHT22;13585;50.864;4.406;2023-05-07T15:04:09;23.10;59.10
25732;DHT22;13585;50.864;4.406;2023-05-07T15:06:40;23.20;59.00
25732;DHT22;13585;50.864;4.406;2023-05-07T15:09:09;23.20;59.00
25732;DHT22;13585;50.864;4.406;2023-05-07T15:11:36;23.20;59.10
25732;DHT22;13585;50.864;4.406;2023-05-07T15:14:03;23.20;59.10
25732;DHT22;13585;50.864;4.406;2023-05-07T15:16:29;23.20;59.20
25732;DHT22;13585;50.864;4.406;2023-05-07T15:18:58;23.20;59.20
25732;DHT22;13585;50.864;4.406;2023-05-07T15:21:32;23.10;59.20
25732;DHT22;13585;50.864;4.406;2023-05-07T15:24:00;23.20;59.30
25732;DHT22;13585;50.864;4.406;2023-05-07T15:26:26;23.20;59.20
25732;DHT22;13585;50.864;4.406;2023-05-07T15:28:52;23.20;59.20
25732;DHT22;13585;50.864;4.406;2023-05-07T15:31:17;23.20;59.20
25732;DHT22;13585;50.864;4.406;2023-05-07T15:33:43;23.20;59.30
25732;DHT22;13585;50.864;4.406;2023-05-07T15:36:12;23.20;59.30
25732;DHT22;13585;50.864;4.406;2023-05-07T15:38:37;23.20;59.30
25732;DHT22;13585;50.864;4.406;2023-05-07T15:41:03;23.20;59.30
25732;DHT22;13585;50.864;4.406;2023-05-07T15:43:29;23.20;59.30
25732;DHT22;13585;50.864;4.406;2023-05-07T15:45:54;23.20;59.30
25732;DHT22;13585;50.864;4.406;2023-05-07T15:48:21;23.20;59.30
25732;DHT22;13585;50.864;4.406;2023-05-07T15:50:47;23.20;59.30
25732;DHT22;13585;50.864;4.406;2023-05-07T15:53:12;23.20;59.40
25732;DHT22;13585;50.864;4.406;2023-05-07T15:55:41;23.20;59.40
25732;DHT22;13585;50.864;4.406;2023-05-07T15:58:08;23.20;59.40